createdAt,value
2023-03-08T00:01:22.256Z,1.10
2023-03-08T00:03:54.396Z,1.26
2023-03-08T00:06:22.141Z,1.06
2023-03-08T00:08:49.441Z,1.00
2023-03-08T00:11:16.646Z,0.96
2023-03-08T00:13:43.644Z,1.01
2023-03-08T00:16:13.853Z,0.95
2023-03-08T00:18:41.082Z,0.08
2023-03-08T00:21:12.046Z,0.97
2023-03-08T00:23:39.675Z,0.60
2023-03-08T00:26:07.137Z,0.95
2023-03-08T00:28:34.534Z,0.98
2023-03-08T00:31:07.088Z,0.92
2023-03-08T00:33:35.158Z,1.02
2023-03-08T00:36:07.862Z,0.97
2023-03-08T00:38:37.142Z,1.05
2023-03-08T00:41:04.590Z,0.96
2023-03-08T00:43:33.355Z,0.95
2023-03-08T00:46:04.834Z,0.96
2023-03-08T00:48:31.991Z,1.18
2023-03-08T00:50:59.046Z,1.17
2023-03-08T00:53:26.231Z,0.98
2023-03-08T00:55:55.812Z,1.26
2023-03-08T00:58:25.156Z,1.07
2023-03-08T01:00:52.406Z,1.01
2023-03-08T01:03:21.715Z,1.15
2023-03-08T01:05:52.170Z,1.12
2023-03-08T01:08:20.143Z,1.07
2023-03-08T01:10:56.843Z,1.00
2023-03-08T01:13:29.631Z,1.06
2023-03-08T01:15:57.017Z,1.02
2023-03-08T01:18:24.157Z,0.97
2023-03-08T01:20:59.951Z,0.91
2023-03-08T01:23:27.297Z,0.56
2023-03-08T01:25:59.318Z,0.88
2023-03-08T01:28:26.432Z,0.83
2023-03-08T01:30:54.007Z,0.87
2023-03-08T01:33:21.310Z,0.55
2023-03-08T01:35:50.235Z,0.78
2023-03-08T01:38:17.279Z,0.89
2023-03-08T01:40:44.286Z,0.84
2023-03-08T01:43:22.822Z,0.84
2023-03-08T01:46:21.540Z,0.83
2023-03-08T01:49:05.607Z,0.71
2023-03-08T01:51:43.650Z,0.48
2023-03-08T01:54:35.406Z,0.80
2023-03-08T01:57:06.430Z,0.82
2023-03-08T01:59:34.648Z,0.78
2023-03-08T02:02:05.230Z,0.72
2023-03-08T02:04:34.590Z,0.81
2023-03-08T02:07:01.873Z,0.77
2023-03-08T02:09:29.015Z,0.74
2023-03-08T02:12:00.955Z,0.83
2023-03-08T02:14:28.859Z,0.63
2023-03-08T02:16:56.575Z,0.86
2023-03-08T02:19:38.992Z,0.82
2023-03-08T02:22:14.689Z,0.70
2023-03-08T02:24:42.211Z,0.77
2023-03-08T02:27:20.302Z,0.73
2023-03-08T02:29:47.815Z,0.69
2023-03-08T02:32:16.683Z,0.70
2023-03-08T02:34:43.818Z,0.76
2023-03-08T02:37:12.781Z,0.71
2023-03-08T02:39:39.786Z,0.72
2023-03-08T02:42:07.001Z,0.54
2023-03-08T02:44:35.459Z,0.63
2023-03-08T02:47:02.508Z,0.58
2023-03-08T02:49:29.859Z,0.67
2023-03-08T02:51:57.622Z,0.60
2023-03-08T02:54:24.626Z,0.69
2023-03-08T02:56:51.685Z,0.63
2023-03-08T02:59:18.811Z,0.67
2023-03-08T03:01:45.908Z,0.61
2023-03-08T03:04:12.920Z,0.53
2023-03-08T03:06:39.897Z,0.63
2023-03-08T03:09:09.249Z,0.62
2023-03-08T03:11:36.842Z,0.63
2023-03-08T03:14:03.861Z,0.41
2023-03-08T03:16:36.806Z,0.68
2023-03-08T03:19:04.193Z,0.68
2023-03-08T03:21:31.449Z,0.65
2023-03-08T03:23:58.790Z,0.70
2023-03-08T03:26:33.809Z,0.72
2023-03-08T03:29:00.809Z,0.70
2023-03-08T03:31:32.563Z,0.63
2023-03-08T03:34:00.920Z,0.74
2023-03-08T03:36:28.505Z,0.39
2023-03-08T03:38:55.740Z,0.70
2023-03-08T03:41:23.761Z,0.41
2023-03-08T03:43:59.900Z,0.69
2023-03-08T03:46:27.090Z,0.65
2023-03-08T03:48:56.825Z,0.68
2023-03-08T03:51:26.040Z,0.66
2023-03-08T03:54:05.878Z,0.65
2023-03-08T03:56:34.167Z,0.72
2023-03-08T03:59:01.305Z,0.59
2023-03-08T04:01:30.736Z,0.68
2023-03-08T04:04:09.202Z,0.65
2023-03-08T04:06:38.688Z,0.66
2023-03-08T04:09:08.712Z,0.68
2023-03-08T04:11:39.548Z,0.57
2023-03-08T04:14:10.411Z,0.57
2023-03-08T04:16:39.763Z,0.63
2023-03-08T04:19:13.901Z,0.35
2023-03-08T04:21:47.846Z,0.69
2023-03-08T04:24:17.258Z,0.76
2023-03-08T04:26:47.120Z,0.76
2023-03-08T04:29:17.819Z,0.51
2023-03-08T04:31:44.955Z,0.64
2023-03-08T04:34:15.652Z,0.67
2023-03-08T04:36:44.807Z,0.53
2023-03-08T04:39:11.946Z,0.59
2023-03-08T04:41:39.293Z,0.66
2023-03-08T04:44:26.571Z,0.63
2023-03-08T04:46:54.032Z,0.59
2023-03-08T04:49:30.968Z,0.23
2023-03-08T04:52:01.439Z,0.65
2023-03-08T04:54:29.404Z,0.63
2023-03-08T04:57:06.107Z,0.56
2023-03-08T04:59:34.907Z,0.54
2023-03-08T05:02:04.173Z,0.57
2023-03-08T05:04:33.670Z,0.53
2023-03-08T05:07:00.885Z,0.60
2023-03-08T05:09:31.554Z,0.57
2023-03-08T05:11:59.311Z,0.57
2023-03-08T05:14:33.643Z,0.57
2023-03-08T05:17:02.490Z,0.51
2023-03-08T05:19:30.244Z,0.50
2023-03-08T05:21:57.319Z,0.61
2023-03-08T05:24:24.341Z,0.57
2023-03-08T05:26:51.660Z,0.58
2023-03-08T05:29:19.147Z,0.57
2023-03-08T05:31:46.637Z,0.59
2023-03-08T05:34:15.073Z,0.42
2023-03-08T05:36:46.302Z,0.61
2023-03-08T05:39:13.284Z,0.42
2023-03-08T05:41:51.103Z,0.46
2023-03-08T05:44:24.423Z,0.45
2023-03-08T05:46:52.177Z,0.46
2023-03-08T05:49:20.458Z,0.51
2023-03-08T05:51:47.536Z,0.39
2023-03-08T05:54:15.356Z,0.56
2023-03-08T05:56:44.309Z,0.49
2023-03-08T05:59:21.660Z,0.39
2023-03-08T06:01:49.553Z,0.46
2023-03-08T06:04:31.053Z,0.45
2023-03-08T06:06:58.707Z,0.35
2023-03-08T06:09:30.846Z,0.42
2023-03-08T06:11:57.941Z,0.49
2023-03-08T06:14:25.103Z,0.46
2023-03-08T06:16:52.817Z,0.46
2023-03-08T06:19:23.633Z,0.54
2023-03-08T06:21:52.817Z,0.52
2023-03-08T06:24:19.900Z,0.56
2023-03-08T06:26:47.003Z,0.58
2023-03-08T06:29:15.827Z,0.50
2023-03-08T06:31:43.380Z,0.60
2023-03-08T06:34:12.673Z,0.54
2023-03-08T06:36:40.344Z,0.45
2023-03-08T06:39:07.543Z,0.49
2023-03-08T06:41:36.068Z,0.51
2023-03-08T06:44:04.894Z,0.56
2023-03-08T06:46:31.987Z,0.67
2023-03-08T06:49:00.238Z,0.72
2023-03-08T06:51:27.575Z,0.64
2023-03-08T06:53:54.610Z,0.78
2023-03-08T06:56:26.492Z,0.79
2023-03-08T06:58:53.695Z,0.35
2023-03-08T07:01:20.706Z,0.70
2023-03-08T07:03:48.748Z,0.87
2023-03-08T07:06:15.798Z,0.71
2023-03-08T07:08:42.958Z,0.53
2023-03-08T07:11:10.885Z,0.77
2023-03-08T07:13:38.428Z,0.78
2023-03-08T07:16:10.661Z,0.56
2023-03-08T07:18:38.084Z,0.70
2023-03-08T07:21:05.776Z,0.72
2023-03-08T07:23:33.174Z,0.67
2023-03-08T07:26:04.465Z,0.45
2023-03-08T07:28:31.524Z,0.65
2023-03-08T07:30:58.486Z,0.70
2023-03-08T07:33:25.590Z,0.71
2023-03-08T07:35:52.652Z,0.81
2023-03-08T07:38:19.794Z,0.17
2023-03-08T07:40:54.447Z,0.96
2023-03-08T07:43:21.528Z,0.75
2023-03-08T07:45:55.293Z,0.95
2023-03-08T07:48:22.283Z,0.81
2023-03-08T07:50:49.359Z,0.81
2023-03-08T07:53:16.341Z,0.72
2023-03-08T07:55:43.537Z,0.87
2023-03-08T07:58:10.565Z,0.83
2023-03-08T08:00:37.532Z,0.96
2023-03-08T08:03:04.562Z,0.91
2023-03-08T08:05:31.631Z,0.95
2023-03-08T08:07:58.917Z,0.94
2023-03-08T08:10:25.914Z,0.91
2023-03-08T08:12:52.971Z,0.86
2023-03-08T08:15:20.854Z,1.02
2023-03-08T08:17:47.936Z,1.05
2023-03-08T08:20:14.904Z,0.98
2023-03-08T08:22:41.854Z,0.92
2023-03-08T08:25:09.309Z,0.86
2023-03-08T08:27:36.425Z,0.94
2023-03-08T08:30:05.045Z,0.95
2023-03-08T08:32:34.296Z,1.15
2023-03-08T08:35:01.430Z,0.94
2023-03-08T08:37:30.293Z,1.28
2023-03-08T08:39:57.365Z,1.40
2023-03-08T08:42:24.869Z,1.36
2023-03-08T08:44:55.193Z,1.47
2023-03-08T08:47:22.169Z,1.30
2023-03-08T08:49:49.143Z,1.41
2023-03-08T08:52:16.127Z,1.36
2023-03-08T08:54:43.176Z,1.46
2023-03-08T08:57:10.192Z,1.43
2023-03-08T08:59:37.774Z,1.36
2023-03-08T09:02:05.572Z,1.31
2023-03-08T09:04:32.663Z,1.36
2023-03-08T09:06:59.814Z,1.62
2023-03-08T09:09:27.029Z,1.81
2023-03-08T09:11:55.801Z,2.01
2023-03-08T09:14:24.217Z,2.13
2023-03-08T09:16:52.529Z,2.26
2023-03-08T09:19:19.851Z,2.20
2023-03-08T09:21:47.006Z,2.31
2023-03-08T09:24:14.141Z,2.38
2023-03-08T09:26:41.264Z,2.34
2023-03-08T09:29:08.284Z,2.20
2023-03-08T09:31:37.324Z,2.35
2023-03-08T09:34:08.558Z,2.31
2023-03-08T09:36:36.767Z,2.24
2023-03-08T09:39:04.080Z,2.25
2023-03-08T09:41:57.097Z,2.40
2023-03-08T09:44:49.145Z,2.39
2023-03-08T09:47:34.727Z,2.48
2023-03-08T09:50:15.769Z,2.30
2023-03-08T09:52:50.431Z,2.71
2023-03-08T09:55:30.037Z,2.66
2023-03-08T09:58:01.871Z,2.89
2023-03-08T10:00:32.692Z,3.07
2023-03-08T10:03:19.641Z,2.90
2023-03-08T10:06:30.417Z,3.18
2023-03-08T10:09:20.789Z,3.26
2023-03-08T10:11:59.791Z,3.30
2023-03-08T10:14:32.568Z,3.28
2023-03-08T10:17:05.449Z,3.33
2023-03-08T10:19:46.493Z,3.48
2023-03-08T10:22:22.733Z,3.43
2023-03-08T10:25:05.055Z,3.40
2023-03-08T10:27:34.874Z,3.36
2023-03-08T10:30:13.880Z,3.42
2023-03-08T10:32:46.412Z,3.43
2023-03-08T10:35:13.458Z,3.49
2023-03-08T10:37:40.414Z,3.27
2023-03-08T10:40:16.133Z,3.24
2023-03-08T10:42:53.772Z,3.45
2023-03-08T10:45:22.408Z,3.39
2023-03-08T10:48:04.217Z,3.39
2023-03-08T10:50:35.358Z,3.15
2023-03-08T10:53:18.147Z,3.02
2023-03-08T10:55:46.441Z,3.06
2023-03-08T10:58:35.169Z,2.98
2023-03-08T11:01:06.118Z,3.06
2023-03-08T11:03:34.055Z,2.88
2023-03-08T11:06:13.167Z,3.41
2023-03-08T11:08:51.490Z,3.44
2023-03-08T11:11:18.617Z,4.11
2023-03-08T11:13:47.858Z,3.63
2023-03-08T11:16:45.636Z,3.96
2023-03-08T11:19:34.410Z,3.59
2023-03-08T11:22:05.446Z,4.17
2023-03-08T11:37:50.436Z,4.12
2023-03-08T11:40:43.568Z,4.41
2023-03-08T11:43:31.220Z,4.49
2023-03-08T11:46:11.400Z,4.23
2023-03-08T11:48:47.265Z,4.18
2023-03-08T11:51:25.472Z,3.96
2023-03-08T11:54:04.632Z,4.04
2023-03-08T11:56:44.067Z,4.30
2023-03-08T11:59:37.593Z,4.42
2023-03-08T12:02:07.460Z,4.57
2023-03-08T12:04:42.869Z,4.46
2023-03-08T12:07:17.984Z,4.41
2023-03-08T12:09:57.376Z,4.13
2023-03-08T12:15:47.310Z,4.27
2023-03-08T12:18:43.930Z,2.12
2023-03-08T12:21:19.940Z,4.28
2023-03-08T12:24:08.709Z,4.20
2023-03-08T12:26:41.417Z,4.06
2023-03-08T12:29:16.106Z,4.42
2023-03-08T12:31:47.730Z,4.58
2023-03-08T12:34:39.554Z,4.58
2023-03-08T12:37:28.757Z,4.21
2023-03-08T12:40:26.214Z,4.92
2023-03-08T12:43:05.063Z,4.86
2023-03-08T12:45:32.539Z,4.75
2023-03-08T12:48:05.441Z,4.89
2023-03-08T12:51:16.714Z,4.69
2023-03-08T12:53:49.895Z,4.63
2023-03-08T12:56:24.102Z,4.60
2023-03-08T12:58:54.901Z,4.65
2023-03-08T13:01:45.121Z,4.49
2023-03-08T13:04:41.026Z,4.63
2023-03-08T13:07:40.068Z,4.78
2023-03-08T13:10:23.230Z,4.37
2023-03-08T13:13:08.913Z,4.75
2023-03-08T13:15:39.902Z,4.71
2023-03-08T13:18:08.504Z,4.57
2023-03-08T13:21:25.576Z,4.52
2023-03-08T13:24:02.883Z,4.38
2023-03-08T13:26:50.610Z,4.36
2023-03-08T13:29:20.399Z,4.46
2023-03-08T13:31:48.521Z,4.28
2023-03-08T13:34:32.036Z,4.31
2023-03-08T13:36:59.269Z,4.05
2023-03-08T13:39:29.034Z,3.97
2023-03-08T13:42:11.282Z,3.99
2023-03-08T13:44:38.898Z,3.93
2023-03-08T13:47:22.288Z,3.92
2023-03-08T13:49:52.003Z,3.93
2023-03-08T13:52:24.358Z,3.99
2023-03-08T13:54:55.006Z,4.17
2023-03-08T13:57:25.920Z,4.06
2023-03-08T13:59:59.372Z,4.09
2023-03-08T14:02:31.339Z,4.05
2023-03-08T14:04:58.851Z,3.92
2023-03-08T14:07:30.597Z,3.91
2023-03-08T14:09:58.481Z,3.93
2023-03-08T14:12:32.592Z,3.68
2023-03-08T14:15:02.205Z,3.81
2023-03-08T14:17:32.228Z,3.95
2023-03-08T14:20:25.401Z,4.03
2023-03-08T14:22:54.573Z,4.38
2023-03-08T14:25:30.922Z,4.37
2023-03-08T14:27:59.034Z,4.41
2023-03-08T14:30:29.198Z,4.33
2023-03-08T14:32:59.225Z,4.32
2023-03-08T14:35:33.195Z,4.22
2023-03-08T14:38:00.550Z,4.16
2023-03-08T14:40:29.334Z,4.24
2023-03-08T14:42:59.461Z,4.23
2023-03-08T14:45:32.740Z,4.24
2023-03-08T14:48:19.601Z,4.23
2023-03-08T14:50:55.419Z,4.24
2023-03-08T14:53:29.181Z,4.37
2023-03-08T14:55:57.594Z,3.99
2023-03-08T14:58:33.188Z,3.80
2023-03-08T15:01:02.097Z,4.24
2023-03-08T15:03:31.666Z,4.03
2023-03-08T15:06:01.303Z,4.07
2023-03-08T15:08:29.289Z,3.95
2023-03-08T15:10:56.393Z,3.99
2023-03-08T15:13:24.277Z,3.71
2023-03-08T15:15:51.420Z,3.71
2023-03-08T15:18:18.479Z,3.50
2023-03-08T15:20:49.255Z,3.70
2023-03-08T15:23:22.151Z,3.24
2023-03-08T15:25:49.666Z,3.51
2023-03-08T15:28:18.836Z,3.49
2023-03-08T15:30:46.579Z,3.48
2023-03-08T15:33:13.707Z,3.45
2023-03-08T15:35:41.409Z,3.47
2023-03-08T15:38:13.008Z,3.45
2023-03-08T15:40:40.888Z,3.42
2023-03-08T15:43:08.139Z,3.47
2023-03-08T15:45:35.636Z,3.23
2023-03-08T15:48:07.612Z,3.43
2023-03-08T15:50:35.586Z,3.49
2023-03-08T15:53:03.645Z,3.43
2023-03-08T15:55:31.391Z,3.38
2023-03-08T15:58:33.136Z,3.32
2023-03-08T16:01:00.120Z,3.26
2023-03-08T16:03:30.850Z,3.27
2023-03-08T16:05:59.323Z,3.19
2023-03-08T16:08:28.439Z,3.20
2023-03-08T16:10:55.912Z,3.18
2023-03-08T16:13:22.967Z,3.14
2023-03-08T16:15:50.564Z,3.12
2023-03-08T16:18:17.624Z,3.01
2023-03-08T16:20:46.124Z,3.12
2023-03-08T16:23:13.330Z,3.04
2023-03-08T16:25:43.133Z,2.99
2023-03-08T16:28:10.747Z,3.09
2023-03-08T16:30:42.724Z,3.10
2023-03-08T16:33:09.735Z,3.13
2023-03-08T16:35:36.814Z,3.11
2023-03-08T16:38:04.029Z,2.99
2023-03-08T16:40:32.917Z,2.94
2023-03-08T16:42:59.949Z,3.09
2023-03-08T16:45:26.948Z,3.08
2023-03-08T16:47:54.108Z,3.02
2023-03-08T16:50:21.119Z,2.92
2023-03-08T16:52:48.242Z,3.01
2023-03-08T16:55:15.327Z,2.96
2023-03-08T16:57:42.293Z,2.90
2023-03-08T17:00:12.361Z,2.91
2023-03-08T17:02:40.194Z,2.95
2023-03-08T17:05:10.566Z,2.93
2023-03-08T17:07:37.978Z,2.89
2023-03-08T17:10:06.022Z,2.87
2023-03-08T17:12:33.007Z,2.88
2023-03-08T17:15:00.579Z,2.64
2023-03-08T17:17:27.640Z,2.85
2023-03-08T17:19:54.775Z,2.82
2023-03-08T17:22:21.866Z,2.83
2023-03-08T17:24:48.927Z,2.60
2023-03-08T17:27:15.927Z,2.81
2023-03-08T17:29:42.925Z,2.85
2023-03-08T17:32:09.933Z,2.86
2023-03-08T17:34:37.012Z,2.81
2023-03-08T17:37:04.104Z,2.77
2023-03-08T17:39:31.164Z,2.79
2023-03-08T17:41:58.227Z,2.78
2023-03-08T17:44:25.319Z,2.78
2023-03-08T17:46:52.338Z,2.83
2023-03-08T17:49:24.624Z,2.88
2023-03-08T17:51:52.911Z,2.84
2023-03-08T17:54:20.644Z,2.85
2023-03-08T17:56:47.760Z,2.86
2023-03-08T17:59:16.857Z,2.77
2023-03-08T18:01:44.361Z,2.83
2023-03-08T18:04:11.500Z,2.77
2023-03-08T18:06:41.151Z,2.83
2023-03-08T18:09:15.742Z,2.78
2023-03-08T18:11:43.583Z,2.84
2023-03-08T18:14:13.494Z,2.83
2023-03-08T18:16:41.242Z,2.77
2023-03-08T18:19:08.413Z,2.84
2023-03-08T18:21:36.166Z,2.75
2023-03-08T18:24:04.982Z,2.73
2023-03-08T18:26:32.492Z,2.66
2023-03-08T18:28:59.505Z,2.69
2023-03-08T18:31:26.942Z,2.72
2023-03-08T18:33:55.206Z,2.73
2023-03-08T18:36:23.636Z,2.76
2023-03-08T18:38:50.976Z,2.75
2023-03-08T18:41:25.300Z,2.81
2023-03-08T18:43:54.592Z,2.84
2023-03-08T18:46:28.434Z,2.59
2023-03-08T18:48:56.545Z,2.91
2023-03-08T18:51:24.068Z,2.85
2023-03-08T18:53:51.239Z,2.91
2023-03-08T18:56:18.401Z,2.81
2023-03-08T18:58:45.668Z,2.90
2023-03-08T19:01:15.162Z,2.78
2023-03-08T19:03:44.872Z,2.78
2023-03-08T19:06:13.817Z,2.73
2023-03-08T19:08:41.116Z,2.62
2023-03-08T19:11:11.535Z,2.68
2023-03-08T19:13:38.620Z,2.66
2023-03-08T19:16:07.197Z,2.68
2023-03-08T19:18:34.458Z,2.82
2023-03-08T19:21:01.451Z,2.71
2023-03-08T19:23:28.544Z,2.73
2023-03-08T19:26:14.274Z,2.66
2023-03-08T19:28:41.766Z,2.65
2023-03-08T19:31:17.299Z,2.75
2023-03-08T19:33:49.319Z,2.62
2023-03-08T19:36:16.319Z,2.69
2023-03-08T19:38:43.347Z,2.51
2023-03-08T19:41:10.833Z,2.70
2023-03-08T19:43:37.989Z,2.48
2023-03-08T19:46:05.315Z,2.82
2023-03-08T19:48:32.329Z,2.76
2023-03-08T19:50:59.330Z,2.79
2023-03-08T19:53:26.341Z,2.81
2023-03-08T19:55:55.372Z,2.85
2023-03-08T19:58:23.412Z,2.79
2023-03-08T20:00:50.561Z,2.73
2023-03-08T20:03:17.815Z,2.73
2023-03-08T20:05:47.226Z,2.70
2023-03-08T20:08:14.387Z,2.58
2023-03-08T20:10:41.878Z,2.59
2023-03-08T20:13:09.215Z,2.63
2023-03-08T20:15:36.384Z,2.77
2023-03-08T20:18:04.023Z,2.88
2023-03-08T20:20:31.221Z,2.89
2023-03-08T20:22:58.275Z,2.78
2023-03-08T20:25:25.414Z,2.78
2023-03-08T20:27:52.744Z,2.71
2023-03-08T20:31:08.673Z,2.71
2023-03-08T20:51:03.395Z,2.88
2023-03-08T20:53:31.970Z,2.71
2023-03-08T20:55:59.746Z,2.84
2023-03-08T20:58:26.735Z,2.88
2023-03-08T21:00:53.756Z,2.82
2023-03-08T21:03:20.782Z,2.85
2023-03-08T21:05:47.828Z,3.01
2023-03-08T21:08:14.978Z,2.77
2023-03-08T21:10:42.030Z,3.03
2023-03-08T21:13:12.819Z,3.02
2023-03-08T21:15:40.228Z,2.92
2023-03-08T21:18:07.294Z,3.08
2023-03-08T21:20:38.056Z,3.05
2023-03-08T21:23:05.126Z,3.09
2023-03-08T21:25:35.519Z,3.06
2023-03-08T21:28:02.520Z,3.04
2023-03-08T21:30:30.659Z,3.03
2023-03-08T21:32:57.785Z,2.95
2023-03-08T21:35:24.974Z,2.84
2023-03-08T21:37:52.008Z,2.96
2023-03-08T21:40:19.169Z,2.98
2023-03-08T21:42:46.167Z,3.00
2023-03-08T21:45:13.236Z,3.09
2023-03-08T21:47:40.283Z,2.98
2023-03-08T21:50:09.928Z,3.03
2023-03-08T21:52:37.051Z,2.99
2023-03-08T21:55:04.594Z,2.94
2023-03-08T21:57:34.578Z,2.94
2023-03-08T22:00:01.714Z,2.40
2023-03-08T22:02:44.602Z,2.74
2023-03-08T22:05:13.316Z,2.88
2023-03-08T22:07:41.175Z,2.94
2023-03-08T22:10:10.845Z,3.00
2023-03-08T22:12:38.224Z,3.09
2023-03-08T22:15:06.112Z,2.88
2023-03-08T22:17:33.135Z,3.24
2023-03-08T22:20:00.139Z,3.12
2023-03-08T22:22:27.213Z,2.98
2023-03-08T22:24:54.204Z,2.83
2023-03-08T22:27:23.635Z,2.97
2023-03-08T22:29:51.526Z,2.95
2023-03-08T22:32:18.698Z,2.90
2023-03-08T22:34:45.809Z,2.86
2023-03-08T22:37:12.806Z,2.78
2023-03-08T22:39:40.240Z,2.80
2023-03-08T22:42:08.200Z,2.82
2023-03-08T22:44:35.269Z,2.68
2023-03-08T22:47:02.399Z,2.92
2023-03-08T22:49:29.428Z,2.88
2023-03-08T22:51:56.446Z,2.64
2023-03-08T22:54:23.826Z,2.88
2023-03-08T22:56:50.939Z,2.91
2023-03-08T22:59:18.367Z,2.95
2023-03-08T23:01:45.478Z,2.91
2023-03-08T23:04:13.381Z,2.75
2023-03-08T23:06:40.649Z,2.99
2023-03-08T23:09:10.217Z,3.08
2023-03-08T23:11:38.140Z,2.69
2023-03-08T23:14:06.555Z,2.99
2023-03-08T23:16:35.576Z,3.13
2023-03-08T23:19:02.726Z,3.25
2023-03-08T23:21:31.779Z,3.21
2023-03-08T23:23:59.603Z,3.32
2023-03-08T23:26:28.257Z,3.15
2023-03-08T23:28:57.727Z,3.13
2023-03-08T23:31:27.850Z,3.13
2023-03-08T23:33:56.805Z,3.05
2023-03-08T23:36:25.886Z,3.30
2023-03-08T23:38:53.263Z,3.28
2023-03-08T23:41:20.292Z,3.36
2023-03-08T23:43:47.576Z,3.45
2023-03-08T23:46:19.610Z,3.38
2023-03-08T23:48:47.667Z,3.25
2023-03-08T23:51:20.121Z,3.20
2023-03-08T23:53:52.129Z,3.17
2023-03-08T23:56:30.054Z,3.12
2023-03-08T23:58:59.344Z,2.78
